Jersey Airport

EGJJ · Saint-Hélier, Jersey

METAR anciennes EGJJ · Aéroport de Jersey

Tu vois ci-dessous les METAR des derniers jours. Sélectionne une année pour parcourir les METAR plus anciens, à partir de l'année 2007.

25 juin 2024

Temps Code Temps Temp. Vue Base cloud Vent METAR/SPECI
18:20
V
24 °C 10 km+ - 040° 040° 7 kt METAR EGJJ 251720Z 04007KT 010V070 CAVOK 24/15 Q1013
17:50
V
24 °C 10 km+ - 020° 020° 8 kt METAR EGJJ 251650Z 02008KT 350V070 CAVOK 24/16 Q1013
17:20
V
24 °C 10 km+ - 030° 030° 8 kt METAR EGJJ 251620Z 03008KT 350V070 CAVOK 24/16 Q1013
16:50
V
23 °C 10 km+ - 030° 030° 10 kt METAR EGJJ 251550Z 03010KT 350V070 CAVOK 23/15 Q1014
16:20
V
23 °C 10 km+ - 020° 020° 10 kt METAR EGJJ 251520Z 02010KT 350V050 9999 FEW032 23/15 Q1014
15:50
V
23 °C 10 km+ - 020° 020° 10 kt METAR EGJJ 251450Z 02010KT 340V050 9999 FEW032 23/15 Q1014
15:20
V
23 °C 10 km+ - 020° 020° 11 kt METAR EGJJ 251420Z 02011KT 340V060 9999 FEW032 23/16 Q1014
14:50
V
23 °C 10 km+ - 030° 030° 9 kt METAR EGJJ 251350Z 03009KT 330V070 9999 FEW035 23/16 Q1014
14:20
V
23 °C 10 km+ - 360° 360° 8 kt METAR EGJJ 251320Z 36008KT 310V040 9999 FEW035 23/15 Q1015
13:50
V
22 °C 10 km+ - 020° 020° 9 kt METAR EGJJ 251250Z 02009KT 330V080 9999 FEW035 22/15 Q1015
13:20
V
22 °C 10 km+ - 030° 030° 10 kt METAR EGJJ 251220Z 03010KT 340V060 CAVOK 22/15 Q1015
12:20
V
21 °C 10 km+ - 020° 020° 9 kt METAR EGJJ 251120Z 02009KT 330V070 CAVOK 21/16 Q1015
11:50
V
20 °C 10 km+ - 020° 020° 12 kt METAR EGJJ 251050Z 02012KT 360V060 CAVOK 20/15 Q1015
11:20
V
21 °C 10 km+ - 050° 050° 10 kt METAR EGJJ 251020Z 05010KT 020V080 CAVOK 21/15 Q1015
10:50
V
20 °C 10 km+ - 040° 040° 12 kt METAR EGJJ 250950Z 04012KT 360V060 CAVOK 20/15 Q1015
10:20
V
20 °C 10 km+ - 030° 030° 11 kt METAR EGJJ 250920Z 03011KT 360V070 CAVOK 20/14 Q1015
09:50
V
20 °C 10 km+ - 050° 050° 11 kt METAR EGJJ 250850Z 05011KT 360V080 CAVOK 20/14 Q1015
09:20
V
19 °C 10 km+ - 040° 040° 11 kt METAR EGJJ 250820Z 04011KT 010V070 CAVOK 19/13 Q1015
08:50
V
18 °C 10 km+ - 040° 040° 11 kt METAR EGJJ 250750Z 04011KT 010V080 CAVOK 18/13 Q1015
08:20
V
19 °C 10 km+ - 040° 040° 10 kt METAR EGJJ 250720Z 04010KT 360V070 CAVOK 19/14 Q1015
07:50
V
17 °C 10 km+ - 040° 040° 10 kt METAR EGJJ 250650Z 04010KT 360V070 CAVOK 17/15 Q1015
07:20
V
16 °C 10 km+ - 030° 030° 10 kt METAR EGJJ 250620Z 03010KT 360V060 CAVOK 16/15 Q1015
06:50
V
16 °C 10 km+ - 030° 030° 8 kt METAR EGJJ 250550Z 03008KT 360V080 CAVOK 16/14 Q1015

24 juin 2024

Temps Code Temps Temp. Vue Base cloud Vent METAR/SPECI
22:20
V
17 °C 10 km+ - 070° 070° 8 kt METAR EGJJ 242120Z AUTO 07008KT 9999 NCD 17/13 Q1017
21:50
V
17 °C 10 km+ - 060° 060° 8 kt METAR EGJJ 242050Z 06008KT CAVOK 17/13 Q1017
21:20
V
18 °C 10 km+ - 050° 050° 8 kt METAR EGJJ 242020Z 05008KT 020V080 CAVOK 18/13 Q1017
20:50
V
19 °C 10 km+ - 040° 040° 8 kt METAR EGJJ 241950Z 04008KT 010V080 CAVOK 19/13 Q1017
20:20
V
20 °C 10 km+ - 040° 040° 8 kt METAR EGJJ 241920Z 04008KT 010V080 CAVOK 20/13 Q1017
19:50
V
20 °C 10 km+ - 030° 030° 10 kt METAR EGJJ 241850Z 03010KT 010V070 CAVOK 20/13 Q1017
19:20
V
21 °C 10 km+ - 030° 030° 10 kt METAR EGJJ 241820Z 03010KT 010V080 CAVOK 21/13 Q1017
18:50
V
21 °C 10 km+ - 030° 030° 9 kt METAR EGJJ 241750Z 03009KT 360V080 9999 FEW030 21/14 Q1017
18:20
V
22 °C 10 km+ - 030° 030° 9 kt METAR EGJJ 241720Z 03009KT 350V080 9999 FEW032 22/14 Q1017
17:50
V
22 °C 10 km+ - 020° 020° 8 kt METAR EGJJ 241650Z 02008KT 340V060 9999 FEW032 22/14 Q1017
17:20
V
22 °C 10 km+ - 040° 040° 10 kt METAR EGJJ 241620Z 04010KT 010V070 9999 FEW032 22/14 Q1018
16:50
V
22 °C 10 km+ - 010° 010° 8 kt METAR EGJJ 241550Z 01008KT 320V050 9999 FEW030 22/15 Q1018
16:20
V
22 °C 10 km+ - 010° 010° 8 kt METAR EGJJ 241520Z 01008KT 300V050 9999 FEW030 22/15 Q1018
15:50
V
24 °C 10 km+ - 350° 350° 6 kt METAR EGJJ 241450Z 35006KT 310V020 9999 FEW030 24/15 Q1018
15:20
V
22 °C 10 km+ - 280° 280° 4 kt METAR EGJJ 241420Z 28004KT 210V330 9999 FEW026 22/15 Q1018
14:50
V
22 °C 10 km+ - 280° 280° 5 kt METAR EGJJ 241350Z 28005KT 250V320 9999 FEW026 22/15 Q1019
14:20
V
23 °C 10 km+ - 310° 310° 5 kt METAR EGJJ 241320Z 31005KT 270V350 9999 FEW027 23/16 Q1019
13:50
V
21 °C 10 km+ - 280° 280° 4 kt METAR EGJJ 241250Z 28004KT 230V350 9999 FEW027 SCT030 21/15 Q1019
13:20
V
22 °C 10 km+ - 130° 130° 5 kt METAR EGJJ 241220Z 13005KT 080V210 9999 FEW027 SCT031 22/15 Q1019
12:50
V
20 °C 10 km+ - Var Var 5 kt METAR EGJJ 241150Z VRB05KT 9999 FEW026 20/15 Q1019
12:20
V
20 °C 10 km+ - 270° 270° 6 kt METAR EGJJ 241120Z 27006KT 240V300 9999 FEW025 SCT040 20/13 Q1020
11:50
V
23 °C 10 km+ 4.000 ft Var Var 5 kt METAR EGJJ 241050Z VRB05KT 9999 FEW025 BKN040 23/14 Q1020
11:20
V
21 °C 10 km+ 4.000 ft 100° 100° 7 kt METAR EGJJ 241020Z 10007KT 060V150 9999 FEW024 BKN040 21/14 Q1020
10:50
V
20 °C 10 km+ 3.900 ft 050° 050° 6 kt METAR EGJJ 240950Z 05006KT 010V100 9999 FEW024 BKN039 20/14 Q1020
10:20
V
20 °C 10 km+ 3.900 ft 090° 090° 6 kt METAR EGJJ 240920Z 09006KT 030V140 9999 FEW024 BKN039 20/14 Q1020
09:50
V
19 °C 10 km+ 3.900 ft 070° 070° 6 kt METAR EGJJ 240850Z 07006KT 030V090 9999 FEW024 BKN039 19/13 Q1020
09:20
V
18 °C 10 km+ 4.000 ft 090° 090° 6 kt METAR EGJJ 240820Z 09006KT 9999 BKN040 18/13 Q1020
08:50
V
18 °C 10 km+ 3.900 ft 090° 090° 7 kt METAR EGJJ 240750Z 09007KT 9999 BKN039 18/14 Q1020
08:20
V
18 °C 10 km+ 3.900 ft 070° 070° 7 kt METAR EGJJ 240720Z 07007KT 040V100 9999 BKN039 18/14 Q1020
07:50
V
17 °C 10 km+ 3.900 ft 070° 070° 6 kt METAR EGJJ 240650Z 07006KT 9999 BKN039 17/14 Q1020
07:20
V
17 °C 10 km+ 3.900 ft 060° 060° 3 kt METAR EGJJ 240620Z 06003KT 020V090 9999 BKN039 17/14 Q1020
06:50
V
16 °C 10 km+ 3.700 ft 080° 080° 5 kt METAR EGJJ 240550Z 08005KT 9999 BKN037 16/13 Q1020
06:20
V
16 °C 10 km+ 3.700 ft 070° 070° 4 kt METAR EGJJ 240520Z 07004KT 030V090 9999 BKN037 16/13 Q1020
05:50
V
16 °C 10 km+ 3.700 ft 080° 080° 5 kt METAR EGJJ 240450Z 08005KT 9999 BKN037 16/13 Q1020
05:20
V
16 °C 10 km+ 3.700 ft 090° 090° 6 kt METAR EGJJ 240420Z AUTO 09006KT 9999 OVC037/// 16/13 Q1020
04:50
V
15 °C 10 km+ 3.800 ft 090° 090° 6 kt METAR EGJJ 240350Z AUTO 09006KT 9999 OVC038/// 15/13 Q1020
04:20
V
15 °C 10 km+ 3.900 ft 090° 090° 6 kt METAR EGJJ 240320Z AUTO 09006KT 9999 BKN039/// 15/13 Q1020
03:50
V
14 °C 10 km+ - 090° 090° 6 kt METAR EGJJ 240250Z AUTO 09006KT 9999 FEW040/// 14/12 Q1020
03:20
V
14 °C 10 km+ - 090° 090° 6 kt METAR EGJJ 240220Z AUTO 09006KT 9999 NCD 14/12 Q1020
02:50
V
14 °C 10 km+ - 100° 100° 6 kt METAR EGJJ 240150Z AUTO 10006KT 9999 NCD 14/12 Q1021
02:20
V
14 °C 10 km+ - 100° 100° 6 kt METAR EGJJ 240120Z AUTO 10006KT 9999 NCD 14/12 Q1021
01:50
V
14 °C 10 km+ - 090° 090° 7 kt METAR EGJJ 240050Z AUTO 09007KT 9999 NCD 14/12 Q1021
01:20
V
14 °C 10 km+ - 100° 100° 7 kt METAR EGJJ 240020Z AUTO 10007KT 9999 NCD 14/12 Q1021
00:50
V
14 °C 10 km+ - 100° 100° 7 kt METAR EGJJ 232350Z AUTO 10007KT 9999 NCD 14/12 Q1021
00:20
V
14 °C 10 km+ - 100° 100° 7 kt METAR EGJJ 232320Z AUTO 10007KT 9999 FEW040/// 14/13 Q1021

23 juin 2024

Temps Code Temps Temp. Vue Base cloud Vent METAR/SPECI
23:50
V
15 °C 10 km+ - 100° 100° 8 kt METAR EGJJ 232250Z AUTO 10008KT 9999 NCD 15/14 Q1021
23:20
V
15 °C 10 km+ - 090° 090° 8 kt METAR EGJJ 232220Z AUTO 09008KT 9999 NCD 15/13 Q1021
22:50
V
15 °C 10 km+ - 090° 090° 7 kt METAR EGJJ 232150Z AUTO 09007KT 9999 NCD 15/12 Q1021
22:20
V
16 °C 10 km+ - 060° 060° 7 kt METAR EGJJ 232120Z AUTO 06007KT 9999 NCD 16/13 Q1021
21:50
V
16 °C 10 km+ - 050° 050° 7 kt METAR EGJJ 232050Z AUTO 05007KT 020V080 9999 NCD 16/13 Q1021
21:20
V
16 °C 10 km+ - 040° 040° 6 kt METAR EGJJ 232020Z 04006KT 010V070 9999 FEW035 16/13 Q1021
20:50
V
18 °C 10 km+ - 040° 040° 5 kt METAR EGJJ 231950Z 04005KT 010V070 9999 FEW020 18/14 Q1021
20:20
V
19 °C 10 km+ - 040° 040° 4 kt METAR EGJJ 231920Z 04004KT 360V070 9999 FEW020 19/14 Q1021
19:50
V
20 °C 10 km+ - 030° 030° 4 kt METAR EGJJ 231850Z 03004KT 360V060 9999 FEW020 20/15 Q1021
19:20
V
20 °C 10 km+ - 020° 020° 6 kt METAR EGJJ 231820Z 02006KT 360V090 9999 FEW024 20/14 Q1021
18:50
V
21 °C 10 km+ - 360° 360° 5 kt METAR EGJJ 231750Z 36005KT 310V040 9999 FEW024 21/14 Q1020
18:20
V
21 °C 10 km+ - 330° 330° 4 kt METAR EGJJ 231720Z 33004KT 250V030 9999 FEW024 21/14 Q1020
17:50
V
21 °C 10 km+ - 260° 260° 6 kt METAR EGJJ 231650Z 26006KT 230V290 9999 FEW024 21/14 Q1020
17:20
V
22 °C 10 km+ - 270° 270° 5 kt METAR EGJJ 231620Z 27005KT 240V320 9999 FEW024 22/14 Q1021
16:50
V
21 °C 10 km+ - 280° 280° 5 kt METAR EGJJ 231550Z 28005KT 220V360 9999 FEW025 21/14 Q1021
16:20
V
21 °C 10 km+ - 300° 300° 7 kt METAR EGJJ 231520Z 30007KT 260V350 9999 FEW025 SCT041 21/14 Q1021
15:50
V
22 °C 10 km+ - Var Var 4 kt METAR EGJJ 231450Z VRB04KT 9999 FEW025 SCT042 22/14 Q1021
15:20
V
22 °C 10 km+ 4.200 ft Var Var 5 kt METAR EGJJ 231420Z VRB05KT 9999 FEW026 BKN042 22/14 Q1021
14:50
V
22 °C 10 km+ 4.200 ft 110° 110° 5 kt METAR EGJJ 231350Z 11005KT 060V170 9999 FEW020 BKN042 22/14 Q1021
14:20
V
22 °C 10 km+ 4.200 ft 180° 180° 5 kt METAR EGJJ 231320Z 18005KT 120V230 9999 FEW020 BKN042 22/14 Q1021
13:50
V
21 °C 10 km+ 4.200 ft Var Var 6 kt METAR EGJJ 231250Z VRB06KT 9999 FEW028 BKN042 21/14 Q1021
13:20
V
21 °C 10 km+ 4.100 ft 120° 120° 6 kt METAR EGJJ 231220Z 12006KT 070V170 9999 FEW028 BKN041 21/14 Q1021
12:50
V
20 °C 10 km+ 4.200 ft 130° 130° 8 kt METAR EGJJ 231150Z 13008KT 090V160 9999 FEW036 BKN042 20/14 Q1021
12:20
V
20 °C 10 km+ 4.200 ft 130° 130° 7 kt METAR EGJJ 231120Z 13007KT 080V160 9999 FEW036 BKN042 20/14 Q1021
11:50
V
19 °C 10 km+ 4.000 ft 120° 120° 7 kt METAR EGJJ 231050Z 12007KT 090V160 9999 FEW036 BKN040 19/13 Q1021
11:20
V
19 °C 10 km+ 4.000 ft 130° 130° 7 kt METAR EGJJ 231020Z 13007KT 090V170 9999 BKN040 19/13 Q1021
10:50
V
19 °C 10 km+ 4.000 ft 160° 160° 8 kt METAR EGJJ 230950Z 16008KT 110V190 9999 BKN040 19/13 Q1021
10:20
V
18 °C 10 km+ 3.600 ft 160° 160° 8 kt METAR EGJJ 230920Z 16008KT 9999 FEW030 BKN036 18/12 Q1021
09:50
V
17 °C 10 km+ 3.600 ft 140° 140° 8 kt METAR EGJJ 230850Z 14008KT 110V180 9999 FEW030 BKN036 17/12 Q1020
09:20
V
17 °C 10 km+ 3.600 ft 140° 140° 8 kt METAR EGJJ 230820Z 14008KT 110V170 9999 FEW030 BKN036 17/12 Q1020
08:50
V
16 °C 10 km+ 3.700 ft 150° 150° 8 kt METAR EGJJ 230750Z 15008KT 9999 FEW030 BKN037 16/12 Q1020
08:20
V
16 °C 10 km+ 3.700 ft 140° 140° 7 kt METAR EGJJ 230720Z 14007KT 9999 FEW030 BKN037 16/13 Q1020
07:50
V
16 °C 10 km+ 3.700 ft 150° 150° 7 kt METAR EGJJ 230650Z 15007KT 9999 FEW030 BKN037 16/13 Q1020
07:20
V
16 °C 10 km+ 3.600 ft 140° 140° 9 kt METAR EGJJ 230620Z 14009KT 9999 FEW030 BKN036 16/13 Q1020
06:50
V
15 °C 10 km+ 3.800 ft 140° 140° 7 kt METAR EGJJ 230550Z 14007KT 9999 FEW030 BKN038 15/13 Q1020
Signaler les modifications